Terminal Aerodrome Forecast
Issued by NWS Corpus Christi, TX

Home | Current Version | Previous Version | Text Only | Print | Product List | Glossary On
Versions: 1 2 3 4 5 6 7 8 9 10 11 12 13 14 15 16
427
FTUS44 KCRP 241739
TAFCRP
TAF
KCRP 241739Z 2418/2518 13010KT P6SM VCSH FEW025 FEW090 BKN250
      TEMPO 2418/2422 TSRA SCT025CB
     FM242200 14015G22KT P6SM SCT050
     FM250200 15010KT P6SM SCT025
     FM251000 15008KT P6SM VCSH BKN020
     FM251400 15010KT P6SM VCSH OVC050
      TEMPO 2514/2518 TSRA OVC040CB=

USA.gov is the U.S. government's official web portal to all federal, state and local government web resources and services.